Time;durP1;ratioP1;P1;durP2;ratioP2;P2;SDS_P1;SDS_P2;PMS_P1;PMS_P2;Temp;Humidity;BMP_temperature;BMP_pressure;BME280_temperature;BME280_humidity;BME280_pressure;Samples;Min_cycle;Max_cycle;Signal;HPM_P1;HPM_P2
2024/02/04 00:00:30;;;;;;;2.95;1.98;;;;;;;5.42;100.00;100148.91;6297201;28;20143;-69
2024/02/04 00:03:31;;;;;;;3.65;2.40;;;;;;;5.53;100.00;100156.25;6279488;28;20503;-69
2024/02/04 00:06:32;;;;;;;7.28;2.50;;;;;;;5.57;100.00;100155.22;6272302;28;20106;-69
2024/02/04 00:09:32;;;;;;;3.83;2.22;;;;;;;5.58;100.00;100141.38;6271805;28;20148;-69
2024/02/04 00:12:35;;;;;;;2.63;1.90;;;;;;;5.48;100.00;100145.22;6273398;28;20484;-70
2024/02/04 00:15:37;;;;;;;2.13;1.70;;;;;;;5.51;100.00;100149.44;6274220;28;20053;-70
2024/02/04 00:18:38;;;;;;;3.25;2.03;;;;;;;5.51;100.00;100150.28;6276651;28;20067;-69
2024/02/04 00:21:38;;;;;;;3.08;2.25;;;;;;;5.58;100.00;100151.75;6297616;28;20055;-74
2024/02/04 00:24:39;;;;;;;3.03;2.00;;;;;;;5.55;100.00;100140.66;6297789;28;20055;-74
2024/02/04 00:27:40;;;;;;;2.50;2.00;;;;;;;5.54;100.00;100139.81;6297768;28;20062;-74
2024/02/04 00:30:41;;;;;;;3.17;2.20;;;;;;;5.44;100.00;100148.84;6297875;28;20040;-74
2024/02/04 00:33:42;;;;;;;3.22;2.20;;;;;;;5.46;100.00;100136.69;6295990;28;20115;-74
2024/02/04 00:36:43;;;;;;;2.78;2.00;;;;;;;5.51;100.00;100144.28;6297389;28;20479;-74
2024/02/04 00:39:43;;;;;;;4.03;2.20;;;;;;;5.43;100.00;100145.38;6297823;28;20078;-74
2024/02/04 00:42:44;;;;;;;3.95;1.80;;;;;;;5.49;100.00;100140.91;6297073;28;20056;-69
2024/02/04 00:45:45;;;;;;;5.43;1.80;;;;;;;5.64;100.00;100133.38;6297273;28;20053;-74
2024/02/04 00:48:46;;;;;;;3.03;2.45;;;;;;;5.74;100.00;100126.06;6298129;28;20060;-74
2024/02/04 00:51:47;;;;;;;3.75;1.98;;;;;;;5.74;100.00;100115.72;6298133;28;20063;-74
2024/02/04 00:54:48;;;;;;;3.88;2.08;;;;;;;5.72;100.00;100107.16;6283389;28;20368;-74
2024/02/04 00:57:49;;;;;;;2.47;1.83;;;;;;;5.63;100.00;100104.97;6273468;28;20052;-73
2024/02/04 01:00:49;;;;;;;3.08;2.28;;;;;;;5.56;100.00;100103.50;6272209;28;20539;-74
2024/02/04 01:03:53;;;;;;;3.58;2.05;;;;;;;5.60;100.00;100107.66;6272917;28;20056;-73
2024/02/04 01:06:53;;;;;;;3.28;2.22;;;;;;;5.73;100.00;100106.28;6272890;28;20056;-73
2024/02/04 01:09:54;;;;;;;2.10;1.90;;;;;;;5.71;100.00;100110.69;6271406;28;20472;-73
2024/02/04 01:12:55;;;;;;;3.92;2.35;;;;;;;5.76;100.00;100110.50;6271822;28;20130;-73
2024/02/04 01:15:56;;;;;;;2.40;1.85;;;;;;;5.72;100.00;100098.56;6271629;28;20100;-73
2024/02/04 01:18:56;;;;;;;3.33;2.10;;;;;;;5.62;100.00;100101.53;6272888;28;20060;-73
2024/02/04 01:21:58;;;;;;;6.18;2.55;;;;;;;5.60;100.00;100107.66;6272498;28;20051;-68
2024/02/04 01:24:59;;;;;;;3.28;2.55;;;;;;;5.51;100.00;100113.22;6272537;28;20395;-69
2024/02/04 01:27:59;;;;;;;4.32;2.63;;;;;;;5.59;100.00;100117.19;6271151;28;20060;-68
2024/02/04 01:31:00;;;;;;;4.05;2.45;;;;;;;5.69;100.00;100122.84;6271387;28;20045;-68
2024/02/04 01:34:01;;;;;;;4.03;2.28;;;;;;;5.54;100.00;100126.03;6271851;28;20079;-74
2024/02/04 01:37:05;;;;;;;4.85;2.50;;;;;;;5.55;100.00;100109.59;6272295;28;20403;-74
2024/02/04 01:40:06;;;;;;;3.83;2.10;;;;;;;5.56;100.00;100117.31;6271155;28;20055;-74
2024/02/04 01:43:07;;;;;;;5.03;2.08;;;;;;;5.55;100.00;100113.03;6271002;28;20071;-69
2024/02/04 01:46:09;;;;;;;4.88;2.28;;;;;;;5.45;100.00;100112.53;6270342;28;20464;-69
2024/02/04 01:49:10;;;;;;;3.03;2.00;;;;;;;5.43;100.00;100118.69;6272104;28;20132;-68
2024/02/04 01:52:12;;;;;;;6.30;3.47;;;;;;;5.43;100.00;100109.16;6271964;28;20593;-68
2024/02/04 01:55:13;;;;;;;7.57;3.30;;;;;;;5.37;100.00;100109.41;6270580;28;20060;-68
2024/02/04 01:58:14;;;;;;;3.78;2.22;;;;;;;5.36;100.00;100099.13;6272103;28;20050;-69
2024/02/04 02:01:16;;;;;;;2.58;1.73;;;;;;;5.33;100.00;100097.47;6271844;28;20464;-69
2024/02/04 02:04:19;;;;;;;2.73;1.70;;;;;;;5.32;100.00;100093.22;6270508;28;20062;-68
2024/02/04 02:07:27;;;;;;;2.85;1.90;;;;;;;5.27;100.00;100095.13;6270666;28;20044;-74
2024/02/04 02:10:28;;;;;;;3.35;2.17;;;;;;;5.24;100.00;100097.84;6271417;28;20064;-74
2024/02/04 02:13:31;;;;;;;2.88;1.83;;;;;;;5.34;100.00;100083.66;6270259;28;20507;-69
2024/02/04 02:16:34;;;;;;;2.33;1.67;;;;;;;5.27;100.00;100099.47;6270302;28;20045;-74
2024/02/04 02:20:05;;;;;;;4.25;2.10;;;;;;;5.12;100.00;100112.09;6271411;28;20526;-73
2024/02/04 02:23:11;;;;;;;3.63;1.92;;;;;;;5.19;100.00;100110.13;6269160;28;20057;-73
2024/02/04 02:26:11;;;;;;;2.50;2.05;;;;;;;5.34;100.00;100098.34;6270238;28;20140;-74
2024/02/04 02:29:12;;;;;;;1.70;1.42;;;;;;;5.40;100.00;100090.34;6271320;28;20045;-73
2024/02/04 02:32:13;;;;;;;3.30;1.75;;;;;;;5.47;100.00;100094.38;6270018;28;20140;-73
2024/02/04 02:35:16;;;;;;;2.17;1.60;;;;;;;5.47;100.00;100099.53;6270283;28;20502;-74
2024/02/04 02:38:35;;;;;;;;;;;;;;;5.58;100.00;100088.75;6271337;28;20045;-74
2024/02/04 02:41:38;;;;;;;2.72;1.50;;;;;;;5.57;100.00;100098.28;6271167;28;19928;-69
2024/02/04 02:44:40;;;;;;;4.22;1.85;;;;;;;5.57;100.00;100111.22;6270339;28;20049;-69
2024/02/04 02:47:42;;;;;;;5.53;1.55;;;;;;;5.70;100.00;100108.13;6269883;28;20053;-74
2024/02/04 02:50:43;;;;;;;1.92;1.52;;;;;;;5.78;100.00;100104.34;6271079;28;20505;-73
2024/02/04 02:53:44;;;;;;;2.35;1.45;;;;;;;5.79;100.00;100106.03;6269753;28;20059;-69
2024/02/04 02:56:45;;;;;;;2.83;1.80;;;;;;;5.73;100.00;100108.88;6271958;28;20381;-68
2024/02/04 02:59:45;;;;;;;2.17;1.23;;;;;;;5.63;100.00;100105.81;6275950;28;20060;-69
2024/02/04 03:02:46;;;;;;;4.28;2.05;;;;;;;5.82;100.00;100121.44;6275906;28;20060;-69
2024/02/04 03:05:47;;;;;;;2.38;1.58;;;;;;;5.85;100.00;100123.91;6275911;28;20553;-69
2024/02/04 03:08:48;;;;;;;1.50;1.30;;;;;;;5.93;100.00;100108.06;6274081;28;20053;-70
2024/02/04 03:11:49;;;;;;;1.60;1.27;;;;;;;5.99;100.00;100101.81;6275881;28;20052;-68
2024/02/04 03:14:50;;;;;;;3.17;1.63;;;;;;;6.01;100.00;100087.03;6275490;28;20056;-74
2024/02/04 03:17:50;;;;;;;1.42;1.33;;;;;;;5.91;100.00;100083.97;6275542;28;20059;-74
2024/02/04 03:20:51;;;;;;;2.05;1.25;;;;;;;5.85;100.00;100079.06;6274386;28;20106;-73
2024/02/04 03:23:52;;;;;;;3.80;1.48;;;;;;;5.85;100.00;100086.81;6275382;28;20052;-74
2024/02/04 03:26:53;;;;;;;1.92;1.50;;;;;;;5.81;100.00;100077.50;6274141;28;20059;-74
2024/02/04 03:29:53;;;;;;;2.55;1.40;;;;;;;5.74;100.00;100078.63;6274059;28;20128;-69
2024/02/04 03:32:54;;;;;;;2.30;1.63;;;;;;;5.74;100.00;100084.66;6273957;28;20049;-69
2024/02/04 03:35:55;;;;;;;1.27;1.13;;;;;;;5.70;100.00;100085.69;6275115;28;20053;-70
2024/02/04 03:38:58;;;;;;;1.52;1.17;;;;;;;5.63;100.00;100076.50;6275189;28;20052;-69
2024/02/04 03:41:59;;;;;;;1.65;1.38;;;;;;;5.69;100.00;100078.00;6274466;28;20061;-74
2024/02/04 03:45:01;;;;;;;2.13;1.55;;;;;;;5.51;100.00;100075.22;6272810;28;20052;-74
2024/02/04 03:48:05;;;;;;;;;;;;;;;5.44;100.00;100081.56;6273648;28;20408;-74
2024/02/04 03:51:06;;;;;;;1.23;0.98;;;;;;;5.42;100.00;100076.44;6274175;28;19947;-69
2024/02/04 03:54:06;;;;;;;1.60;1.33;;;;;;;5.32;100.00;100085.47;6274654;28;20638;-74
2024/02/04 03:57:07;;;;;;;2.10;1.60;;;;;;;5.26;100.00;100088.28;6274649;28;20049;-69
2024/02/04 04:00:09;;;;;;;2.15;1.20;;;;;;;5.25;100.00;100086.63;6274644;28;20500;-69
2024/02/04 04:03:10;;;;;;;1.87;1.40;;;;;;;5.34;100.00;100081.06;6273458;28;20091;-74
2024/02/04 04:06:11;;;;;;;2.15;1.20;;;;;;;5.44;100.00;100076.38;6273309;28;20053;-70
2024/02/04 04:09:12;;;;;;;2.28;1.50;;;;;;;5.47;100.00;100078.00;6273004;28;20055;-69
2024/02/04 04:12:12;;;;;;;6.82;3.30;;;;;;;5.45;100.00;100094.41;6273581;28;20045;-69
2024/02/04 04:15:13;;;;;;;9.63;4.68;;;;;;;5.32;100.00;100106.16;6274103;28;20480;-69
2024/02/04 04:18:14;;;;;;;4.07;2.35;;;;;;;5.39;100.00;100102.41;6273129;28;20492;-68
2024/02/04 04:21:15;;;;;;;2.83;1.73;;;;;;;5.40;100.00;100101.53;6273014;28;20049;-69
2024/02/04 04:24:19;;;;;;;2.70;1.60;;;;;;;5.41;100.00;100090.25;6274317;28;20052;-69
2024/02/04 04:27:22;;;;;;;3.10;1.52;;;;;;;5.40;100.00;100093.78;6273777;28;20045;-68
2024/02/04 04:30:24;;;;;;;1.40;1.30;;;;;;;5.44;100.00;100086.72;6273941;28;20587;-74
2024/02/04 04:33:24;;;;;;;2.05;1.48;;;;;;;5.42;100.00;100099.72;6272756;28;20080;-74
2024/02/04 04:36:25;;;;;;;2.40;1.70;;;;;;;5.39;100.00;100075.72;6272611;28;20472;-69
2024/02/04 04:39:26;;;;;;;2.00;1.45;;;;;;;5.41;100.00;100069.56;6273974;28;20052;-68
2024/02/04 04:42:27;;;;;;;3.03;1.67;;;;;;;5.40;100.00;100064.47;6273574;28;20060;-68
2024/02/04 04:45:27;;;;;;;2.35;1.67;;;;;;;5.39;100.00;100062.75;6272420;28;20064;-69
2024/02/04 04:48:28;;;;;;;3.08;2.10;;;;;;;5.30;100.00;100071.75;6272254;28;20053;-74
2024/02/04 04:51:29;;;;;;;4.10;2.38;;;;;;;5.25;100.00;100066.75;6272417;28;20056;-68
2024/02/04 04:54:30;;;;;;;3.40;2.28;;;;;;;5.15;100.00;100062.00;6271442;28;20076;-74
2024/02/04 04:57:30;;;;;;;2.58;1.67;;;;;;;5.03;100.00;100092.59;6272722;28;20049;-74
2024/02/04 05:00:31;;;;;;;4.53;2.20;;;;;;;5.07;100.00;100082.13;6272030;28;20492;-74
2024/02/04 05:03:32;;;;;;;2.15;1.70;;;;;;;4.85;100.00;100086.34;6271910;28;20056;-74
2024/02/04 05:06:33;;;;;;;1.85;1.73;;;;;;;4.99;100.00;100082.41;6271694;28;20045;-74
2024/02/04 05:09:33;;;;;;;2.03;1.52;;;;;;;5.06;100.00;100078.69;6272778;28;20056;-74
2024/02/04 05:12:35;;;;;;;3.55;2.03;;;;;;;5.07;100.00;100051.94;6271883;28;20064;-74
2024/02/04 05:15:36;;;;;;;4.75;1.55;;;;;;;5.05;100.00;100049.41;6271508;28;20104;-74
2024/02/04 05:18:37;;;;;;;6.50;1.92;;;;;;;5.02;100.00;100054.72;6272755;28;20431;-74
2024/02/04 05:21:40;;;;;;;2.80;1.75;;;;;;;5.04;100.00;100047.75;6272549;28;20051;-74
2024/02/04 05:24:43;;;;;;;2.47;1.60;;;;;;;5.07;100.00;100041.59;6272816;28;20132;-72
2024/02/04 05:27:44;;;;;;;1.88;1.67;;;;;;;5.07;100.00;100045.94;6271125;28;20076;-73
2024/02/04 05:30:45;;;;;;;2.22;1.38;;;;;;;5.10;100.00;100049.22;6271605;28;20049;-68
2024/02/04 05:33:46;;;;;;;3.65;1.95;;;;;;;5.15;100.00;100056.81;6271438;28;20103;-69
2024/02/04 05:36:47;;;;;;;1.58;1.42;;;;;;;5.20;100.00;100053.13;6272215;28;20053;-68
2024/02/04 05:39:47;;;;;;;2.08;1.42;;;;;;;5.23;100.00;100053.03;6271326;28;20206;-69
2024/02/04 05:42:48;;;;;;;2.45;1.85;;;;;;;5.32;100.00;100066.50;6270941;28;20064;-69
2024/02/04 05:45:49;;;;;;;2.97;1.77;;;;;;;5.33;100.00;100079.38;6272278;28;20084;-73
2024/02/04 05:48:50;;;;;;;3.47;2.22;;;;;;;5.28;100.00;100073.53;6270727;28;20079;-74
2024/02/04 05:51:51;;;;;;;3.33;2.30;;;;;;;5.31;100.00;100083.75;6271085;28;20487;-73
2024/02/04 05:54:51;;;;;;;5.15;3.42;;;;;;;5.30;100.00;100079.50;6271994;28;20088;-69
2024/02/04 05:57:52;;;;;;;4.55;2.50;;;;;;;5.19;100.00;100072.16;6272516;28;20053;-69
2024/02/04 06:00:53;;;;;;;6.40;4.10;;;;;;;5.27;100.00;100073.59;6270736;28;20064;-69
2024/02/04 06:03:54;;;;;;;2.25;2.05;;;;;;;5.23;100.00;100083.25;6270465;28;20048;-74
2024/02/04 06:06:55;;;;;;;4.72;2.45;;;;;;;5.12;100.00;100087.97;6277434;28;20491;-70
2024/02/04 06:09:56;;;;;;;3.92;2.15;;;;;;;5.19;100.00;100086.84;6269524;28;20064;-74
2024/02/04 06:12:56;;;;;;;2.75;1.83;;;;;;;5.16;100.00;100086.94;6271658;28;20049;-69
2024/02/04 06:15:57;;;;;;;7.15;1.98;;;;;;;5.30;100.00;100087.25;6269356;28;20083;-68
2024/02/04 06:18:59;;;;;;;3.95;1.88;;;;;;;5.25;100.00;100089.19;6267260;28;20053;-68
2024/02/04 06:21:59;;;;;;;4.30;1.98;;;;;;;5.25;100.00;100096.97;6271392;28;20045;-69
2024/02/04 06:25:00;;;;;;;3.53;1.85;;;;;;;5.32;100.00;100105.31;6271466;28;20059;-69
2024/02/04 06:28:01;;;;;;;2.70;1.73;;;;;;;5.45;100.00;100112.53;6271274;28;20431;-70
2024/02/04 06:31:02;;;;;;;2.33;1.70;;;;;;;5.55;100.00;100105.25;6271698;28;20411;-69
2024/02/04 06:34:03;;;;;;;5.80;2.95;;;;;;;5.59;100.00;100113.75;6279561;28;20063;-70
2024/02/04 06:37:04;;;;;;;6.70;2.92;;;;;;;5.63;100.00;100115.31;6278331;28;20431;-70
2024/02/04 06:40:06;;;;;;;5.38;2.55;;;;;;;5.70;100.00;100114.16;6264871;28;20053;-74
2024/02/04 06:43:07;;;;;;;5.00;2.47;;;;;;;5.69;100.00;100114.25;6253909;28;20061;-69
2024/02/04 06:46:08;;;;;;;3.70;2.00;;;;;;;5.73;100.00;100108.88;6254957;28;20115;-69
2024/02/04 06:49:08;;;;;;;3.65;2.10;;;;;;;5.82;100.00;100115.41;6279594;28;20053;-74
2024/02/04 06:52:09;;;;;;;3.63;1.73;;;;;;;5.84;100.00;100121.38;6279592;28;20068;-69
2024/02/04 06:55:10;;;;;;;2.13;1.77;;;;;;;5.91;100.00;100127.16;6279416;28;20102;-74
2024/02/04 06:58:11;;;;;;;2.40;1.30;;;;;;;5.99;100.00;100128.56;6279406;28;20049;-74
2024/02/04 07:01:12;;;;;;;2.47;1.60;;;;;;;6.15;100.00;100136.53;6278611;28;20056;-74
2024/02/04 07:04:13;;;;;;;6.82;2.70;;;;;;;6.26;100.00;100151.66;6279300;28;20136;-74
2024/02/04 07:07:14;;;;;;;10.13;3.63;;;;;;;6.31;100.00;100148.88;6279005;28;20545;-69
2024/02/04 07:10:15;;;;;;;4.90;3.20;;;;;;;6.36;100.00;100160.75;6277914;28;20056;-74
2024/02/04 07:13:17;;;;;;;10.23;4.70;;;;;;;6.47;100.00;100156.84;6277180;28;20111;-74
2024/02/04 07:16:18;;;;;;;10.35;5.13;;;;;;;6.63;100.00;100166.50;6278214;28;20057;-69
2024/02/04 07:19:20;;;;;;;7.05;4.38;;;;;;;6.75;100.00;100157.31;6278053;28;20109;-74
2024/02/04 07:22:20;;;;;;;7.70;3.88;;;;;;;6.81;100.00;100154.47;6276841;28;20511;-74
2024/02/04 07:25:22;;;;;;;4.50;2.80;;;;;;;6.67;100.00;100159.41;6276434;28;20495;-74
2024/02/04 07:28:23;;;;;;;3.93;2.60;;;;;;;6.73;100.00;100163.50;6286642;28;20131;-74
2024/02/04 07:31:24;;;;;;;2.28;2.03;;;;;;;6.80;100.00;100147.59;6287769;28;20486;-69
2024/02/04 07:34:25;;;;;;;4.82;2.38;;;;;;;6.87;100.00;100145.56;6281255;28;21054;-69
2024/02/04 07:37:26;;;;;;;3.67;2.60;;;;;;;7.00;100.00;100135.50;6279372;28;20053;-69
2024/02/04 07:40:27;;;;;;;4.95;3.17;;;;;;;7.07;100.00;100123.94;6280852;28;20435;-69
2024/02/04 07:43:28;;;;;;;6.40;2.77;;;;;;;7.22;100.00;100117.19;6273359;28;20137;-69
2024/02/04 07:46:29;;;;;;;4.45;2.17;;;;;;;7.20;100.00;100113.84;6272198;28;20294;-69
2024/02/04 07:49:30;;;;;;;3.30;2.30;;;;;;;7.25;100.00;100104.94;6277599;28;20049;-69
2024/02/04 07:52:31;;;;;;;6.60;2.65;;;;;;;7.37;100.00;100102.66;6266534;28;20072;-69
2024/02/04 07:55:32;;;;;;;2.85;2.40;;;;;;;7.61;100.00;100104.09;6272330;28;20079;-69
2024/02/04 07:58:33;;;;;;;2.80;1.83;;;;;;;7.60;100.00;100101.59;6269507;28;20040;-69
2024/02/04 08:01:34;;;;;;;2.45;1.70;;;;;;;7.73;100.00;100107.03;6273414;28;20482;-74
2024/02/04 08:04:35;;;;;;;5.25;2.58;;;;;;;8.00;100.00;100107.44;6271544;28;20049;-74
2024/02/04 08:07:36;;;;;;;5.25;3.10;;;;;;;8.16;100.00;100112.72;6258612;28;20053;-74
2024/02/04 08:10:37;;;;;;;5.75;2.25;;;;;;;8.25;100.00;100127.84;6272958;28;20053;-74
2024/02/04 08:13:43;;;;;;;5.70;2.65;;;;;;;8.27;100.00;100124.25;6266002;28;20049;-70
2024/02/04 08:16:46;;;;;;;4.60;2.47;;;;;;;8.43;100.00;100126.13;6271361;28;20059;-70
2024/02/04 08:19:46;;;;;;;4.45;2.53;;;;;;;8.55;100.00;100135.06;6253023;28;20053;-74
2024/02/04 08:22:52;;;;;;;3.50;2.42;;;;;;;8.60;100.00;100136.47;6254152;28;20094;-74
2024/02/04 08:25:52;;;;;;;3.53;1.85;;;;;;;8.56;100.00;100128.94;6273042;28;20144;-69
2024/02/04 08:28:53;;;;;;;2.20;1.80;;;;;;;8.64;100.00;100129.38;6272660;28;20045;-70
2024/02/04 08:31:54;;;;;;;5.18;2.92;;;;;;;8.85;100.00;100122.19;6268906;28;20418;-70
2024/02/04 08:34:55;;;;;;;8.85;4.15;;;;;;;8.87;100.00;100117.75;6283234;28;20084;-69
2024/02/04 08:37:55;;;;;;;5.90;3.13;;;;;;;9.00;100.00;100107.56;6275959;28;20099;-69
2024/02/04 08:40:56;;;;;;;4.05;2.67;;;;;;;9.09;100.00;100109.66;6277877;28;20496;-69
2024/02/04 08:43:57;;;;;;;3.83;2.30;;;;;;;9.31;100.00;100103.25;6275212;28;20557;-70
2024/02/04 08:47:00;;;;;;;2.92;1.70;;;;;;;9.37;100.00;100101.19;6271803;28;20085;-69
2024/02/04 08:50:06;;;;;;;1.77;1.42;;;;;;;9.30;100.00;100099.81;6277887;28;20063;-74
2024/02/04 08:53:08;;;;;;;4.30;1.60;;;;;;;9.36;100.00;100102.09;6256953;28;20057;-73
2024/02/04 08:56:09;;;;;;;5.63;2.22;;;;;;;9.47;100.00;100096.28;6268813;28;20053;-74
2024/02/04 08:59:12;;;;;;;1.90;1.33;;;;;;;9.82;100.00;100098.66;6272135;28;20292;-69
2024/02/04 09:02:13;;;;;;;2.97;1.88;;;;;;;9.95;100.00;100094.44;6266703;28;20050;-75
2024/02/04 09:05:16;;;;;;;3.28;1.83;;;;;;;10.30;100.00;100109.00;6271810;28;20044;-69
2024/02/04 09:08:16;;;;;;;3.97;1.60;;;;;;;10.45;100.00;100110.69;6270741;28;20519;-69
2024/02/04 09:11:20;;;;;;;2.17;1.70;;;;;;;10.58;100.00;100100.34;6273348;28;20057;-69
2024/02/04 09:14:21;;;;;;;2.13;1.55;;;;;;;10.73;100.00;100101.19;6267777;28;20061;-70
2024/02/04 09:17:24;;;;;;;2.00;1.63;;;;;;;10.70;100.00;100094.38;6268913;28;20125;-69
2024/02/04 09:20:25;;;;;;;1.48;1.27;;;;;;;10.76;100.00;100095.78;6273155;28;20071;-69
2024/02/04 09:23:25;;;;;;;7.25;2.08;;;;;;;10.86;100.00;100107.34;6270896;28;20570;-69
2024/02/04 09:26:26;;;;;;;4.60;2.60;;;;;;;11.05;100.00;100115.72;6265981;28;20055;-69
2024/02/04 09:29:27;;;;;;;2.38;1.67;;;;;;;10.99;100.00;100103.03;6263922;28;20049;-69
2024/02/04 09:32:30;;;;;;;3.35;1.85;;;;;;;11.25;100.00;100093.59;6271014;28;20056;-75
2024/02/04 09:35:31;;;;;;;4.15;1.95;;;;;;;11.37;100.00;100085.91;6270059;28;20518;-75
2024/02/04 09:38:34;;;;;;;5.93;3.17;;;;;;;11.26;100.00;100082.22;6257407;28;20045;-75
2024/02/04 09:41:35;;;;;;;3.33;2.08;;;;;;;11.27;100.00;100083.03;6271314;28;20079;-75
2024/02/04 09:44:38;;;;;;;4.13;2.20;;;;;;;11.54;100.00;100082.22;6269783;28;20052;-75
2024/02/04 09:47:42;;;;;;;2.88;1.65;;;;;;;11.53;100.00;100085.75;6269993;28;20134;-75
2024/02/04 09:50:43;;;;;;;2.60;1.63;;;;;;;11.34;100.00;100078.25;6269646;28;20403;-75
2024/02/04 09:53:45;;;;;;;1.55;1.40;;;;;;;11.35;100.00;100090.41;6270776;28;20416;-75
2024/02/04 09:56:47;;;;;;;1.27;1.10;;;;;;;11.38;100.00;100091.03;6270791;28;20558;-69
2024/02/04 09:59:48;;;;;;;;;;;;;;;11.48;100.00;100083.44;6270226;28;20084;-75
2024/02/04 10:02:49;;;;;;;1.30;1.20;;;;;;;12.01;99.46;100073.91;6269483;28;19927;-75
2024/02/04 10:05:50;;;;;;;2.38;1.42;;;;;;;12.17;94.46;100052.78;6270501;28;20056;-75
2024/02/04 10:08:51;;;;;;;1.85;1.30;;;;;;;12.07;94.54;100052.56;6269668;28;20060;-74
2024/02/04 10:11:52;;;;;;;1.43;1.17;;;;;;;12.26;94.31;100043.47;6270503;28;20492;-69
2024/02/04 10:14:53;;;;;;;4.93;2.30;;;;;;;12.17;92.57;100038.84;6270548;28;20392;-69
2024/02/04 10:17:54;;;;;;;2.47;1.67;;;;;;;12.18;91.76;100038.75;6270394;28;20041;-75
2024/02/04 10:21:01;;;;;;;1.00;0.60;;;;;;;12.35;90.66;100036.78;6269434;28;20045;-75
2024/02/04 10:24:02;;;;;;;1.42;1.00;;;;;;;12.47;90.52;100049.84;6254306;28;20171;-69
2024/02/04 10:27:04;;;;;;;2.78;1.20;;;;;;;12.64;90.36;100046.09;6270261;28;20521;-69
2024/02/04 10:30:06;;;;;;;1.58;1.20;;;;;;;12.85;88.63;100035.03;6270199;28;20140;-69
2024/02/04 10:33:08;;;;;;;2.35;1.50;;;;;;;13.00;88.52;100033.09;6270477;28;20084;-70
2024/02/04 10:36:10;;;;;;;2.17;1.13;;;;;;;13.02;87.82;100031.22;6268892;28;20074;-69
2024/02/04 10:39:12;;;;;;;1.23;1.05;;;;;;;13.19;85.81;100020.34;6271132;28;20049;-69
2024/02/04 10:42:23;;;;;;;0.68;0.68;;;;;;;13.16;86.57;100017.97;6272313;28;20052;-69
2024/02/04 10:45:32;;;;;;;1.60;1.05;;;;;;;13.14;83.70;100011.16;6273161;28;20064;-69
2024/02/04 10:48:41;;;;;;;0.60;0.60;;;;;;;13.07;85.39;100016.00;6273433;28;20051;-69
2024/02/04 10:51:44;;;;;;;1.60;1.05;;;;;;;12.78;87.65;100023.31;6272378;28;20067;-75
2024/02/04 10:54:46;;;;;;;1.10;1.00;;;;;;;13.07;86.55;100019.47;6269499;28;20076;-75
2024/02/04 10:57:47;;;;;;;5.82;2.85;;;;;;;13.34;85.67;100013.19;6269649;28;20041;-75
2024/02/04 11:00:50;;;;;;;2.42;1.23;;;;;;;13.49;84.76;100004.22;6269940;28;20049;-75
2024/02/04 11:03:53;;;;;;;0.88;0.77;;;;;;;13.51;85.00;100011.97;6269381;28;20045;-75
2024/02/04 11:06:54;;;;;;;1.88;1.30;;;;;;;13.85;83.74;99998.94;6269917;28;20045;-75
2024/02/04 11:09:57;;;;;;;1.80;0.80;;;;;;;14.01;83.21;99996.00;6267766;28;20060;-75
2024/02/04 11:12:59;;;;;;;1.75;0.88;;;;;;;13.68;80.96;99982.69;6270165;28;20045;-75
2024/02/04 11:16:07;;;;;;;3.63;1.40;;;;;;;13.90;79.67;99979.28;6268621;28;20510;-75
2024/02/04 11:19:31;;;;;;;1.60;1.20;;;;;;;14.00;80.02;99994.31;6270604;28;20048;-75
2024/02/04 11:23:00;;;;;;;0.80;0.57;;;;;;;13.92;78.49;99973.94;6252059;28;20463;-75
2024/02/04 11:26:04;;;;;;;1.10;0.73;;;;;;;14.20;76.91;99966.56;6269802;28;20106;-69
2024/02/04 11:29:05;;;;;;;1.35;0.90;;;;;;;14.34;75.82;99981.25;6274048;28;20045;-69
2024/02/04 11:32:06;;;;;;;0.65;0.65;;;;;;;14.10;76.10;99977.78;6274386;28;20410;-75
2024/02/04 11:35:08;;;;;;;1.38;1.00;;;;;;;14.41;75.85;99980.66;6274096;28;20052;-69
2024/02/04 11:38:10;;;;;;;1.20;1.10;;;;;;;14.27;77.27;99984.34;6274300;28;20060;-70
2024/02/04 11:41:22;;;;;;;1.33;1.10;;;;;;;14.15;75.42;99971.34;6273782;28;20449;-69
2024/02/04 11:44:26;;;;;;;4.70;2.15;;;;;;;14.04;76.38;99957.25;6272883;28;20102;-69
2024/02/04 11:47:27;;;;;;;1.05;0.70;;;;;;;14.35;76.34;99962.75;6273690;28;20056;-75
2024/02/04 11:50:31;;;;;;;0.55;0.55;;;;;;;14.10;75.34;99950.69;6273902;28;20454;-75
2024/02/04 11:53:33;;;;;;;0.80;0.75;;;;;;;13.94;73.89;99951.06;6272528;28;20049;-75
2024/02/04 11:56:35;;;;;;;1.00;0.80;;;;;;;14.02;76.51;99942.56;6273811;28;20052;-75
2024/02/04 11:59:36;;;;;;;0.93;0.70;;;;;;;14.32;74.71;99940.19;6272246;28;20045;-75
2024/02/04 12:02:38;;;;;;;0.85;0.80;;;;;;;14.24;73.91;99923.38;6273685;28;20523;-75
2024/02/04 12:05:39;;;;;;;1.03;0.63;;;;;;;14.36;72.30;99911.09;6272394;28;20446;-69
2024/02/04 12:08:39;;;;;;;0.73;0.50;;;;;;;13.99;72.27;99908.72;6273027;28;20084;-75
2024/02/04 12:11:41;;;;;;;2.92;1.00;;;;;;;13.93;73.56;99903.94;6273400;28;20092;-69
2024/02/04 12:14:42;;;;;;;0.45;0.45;;;;;;;14.08;76.18;99914.09;6273248;28;20060;-69
2024/02/04 12:17:43;;;;;;;0.60;0.60;;;;;;;14.00;78.16;99916.47;6272109;28;20240;-75
2024/02/04 12:20:45;;;;;;;0.68;0.57;;;;;;;13.72;75.67;99915.13;6278109;28;20083;-70
2024/02/04 12:23:49;;;;;;;1.92;0.98;;;;;;;13.68;77.61;99930.25;6273069;28;20535;-75
2024/02/04 12:26:50;;;;;;;0.47;0.43;;;;;;;13.00;80.56;99937.03;6246827;28;20515;-69
2024/02/04 12:29:52;;;;;;;2.15;0.65;;;;;;;13.05;81.37;99955.88;6247462;28;20060;-69
2024/02/04 12:33:05;;;;;;;1.13;0.88;;;;;;;12.90;83.48;99942.09;6248065;28;20049;-68
2024/02/04 12:36:07;;;;;;;2.10;0.77;;;;;;;12.84;85.29;99939.91;6248214;28;20092;-69
2024/02/04 12:39:11;;;;;;;1.50;0.88;;;;;;;13.15;85.15;99942.09;6246661;28;20484;-75
2024/02/04 12:42:21;;;;;;;0.93;0.70;;;;;;;12.89;83.61;99940.44;6247982;28;20053;-75
2024/02/04 12:45:26;;;;;;;0.50;0.50;;;;;;;13.00;81.75;99928.34;6246566;28;20049;-75
2024/02/04 12:48:27;;;;;;;6.97;1.00;;;;;;;13.12;81.11;99934.47;6246492;28;20111;-68
2024/02/04 12:51:30;;;;;;;3.03;0.90;;;;;;;13.37;81.24;99947.47;6246407;28;20550;-75
2024/02/04 12:54:41;;;;;;;1.30;0.80;;;;;;;13.28;79.94;99951.56;6246358;28;20052;-75
2024/02/04 12:57:41;;;;;;;1.35;1.00;;;;;;;13.50;78.77;99952.63;6247560;28;20045;-75
2024/02/04 13:00:42;;;;;;;3.75;1.10;;;;;;;13.48;77.10;99954.50;6255614;28;20097;-75
2024/02/04 13:03:44;;;;;;;1.98;0.90;;;;;;;13.97;76.01;99952.59;6283140;28;20059;-75
2024/02/04 13:06:45;;;;;;;1.42;0.90;;;;;;;13.76;73.95;99940.16;6271934;28;20138;-75
2024/02/04 13:09:46;;;;;;;1.75;1.08;;;;;;;13.91;74.90;99941.59;6270588;28;20056;-75
2024/02/04 13:12:58;;;;;;;1.27;0.70;;;;;;;13.70;74.97;99938.84;6271734;28;20053;-75
2024/02/04 13:15:59;;;;;;;2.63;1.73;;;;;;;13.82;74.46;99947.56;6270764;28;20136;-69
2024/02/04 13:18:59;;;;;;;3.47;1.63;;;;;;;14.03;74.42;99950.31;6270282;28;20640;-69
2024/02/04 13:22:00;;;;;;;1.92;0.73;;;;;;;13.85;74.66;99949.94;6274710;28;20048;-69
2024/02/04 13:25:03;;;;;;;2.28;1.13;;;;;;;13.73;75.51;99952.66;6278677;28;20136;-69
2024/02/04 13:28:05;;;;;;;0.98;0.82;;;;;;;13.66;76.64;99960.16;6279196;28;20049;-69
2024/02/04 13:31:06;;;;;;;1.08;0.98;;;;;;;13.50;74.46;99968.34;6277325;28;20049;-69
2024/02/04 13:34:07;;;;;;;1.43;0.80;;;;;;;13.37;75.93;99976.28;6272581;28;20455;-68
2024/02/04 13:37:08;;;;;;;0.90;0.80;;;;;;;13.19;76.31;99973.19;6268808;28;20040;-69
2024/02/04 13:40:09;;;;;;;2.08;1.27;;;;;;;13.10;76.84;99961.59;6267879;28;20057;-68
2024/02/04 13:43:12;;;;;;;3.50;1.60;;;;;;;12.93;77.41;99972.50;6270325;28;20098;-68
2024/02/04 13:46:13;;;;;;;3.67;1.25;;;;;;;12.99;77.52;99984.28;6285703;28;20052;-68
2024/02/04 13:49:14;;;;;;;4.10;1.95;;;;;;;12.94;76.76;99974.16;6284804;28;20090;-75
2024/02/04 13:52:15;;;;;;;1.88;1.23;;;;;;;13.10;77.73;99961.59;6291639;28;20056;-75
2024/02/04 13:55:16;;;;;;;3.53;1.15;;;;;;;12.92;77.01;99962.94;6294631;28;20560;-75
2024/02/04 13:58:18;;;;;;;2.60;1.20;;;;;;;12.83;78.35;99956.59;6295692;28;20419;-75
2024/02/04 14:01:20;;;;;;;;;;;;;;;12.69;77.92;99969.84;6290474;28;20056;-69
2024/02/04 14:04:21;;;;;;;4.63;1.63;;;;;;;12.68;79.48;99971.63;6281948;28;19965;-71
2024/02/04 14:07:22;;;;;;;2.00;1.48;;;;;;;12.54;80.26;99961.28;6284117;28;20038;-75